Time;durP1;ratioP1;P1;durP2;ratioP2;P2;SDS_P1;SDS_P2;PMS_P1;PMS_P2;Temp;Humidity;BMP_temperature;BMP_pressure;BME280_temperature;BME280_humidity;BME280_pressure;Samples;Min_cycle;Max_cycle;Signal;HPM_P1;HPM_P2
2021/08/01 00:01:02;;;;;;;;;;;25.00;51.50;;;;;;1604939;72;728;-64
2021/08/01 00:03:04;;;;;;;;;;;24.90;51.40;;;;;;1598114;73;1088;-64
2021/08/01 00:05:07;;;;;;;;;;;25.00;51.40;;;;;;1602544;72;828;-63
2021/08/01 00:07:09;;;;;;;;;;;25.00;51.30;;;;;;1595983;72;675;-66
2021/08/01 00:09:11;;;;;;;;;;;24.90;51.20;;;;;;1605284;72;769;-66
2021/08/01 00:11:13;;;;;;;;;;;25.00;51.10;;;;;;1598920;72;1936;-66
2021/08/01 00:13:15;;;;;;;;;;;24.90;51.10;;;;;;1605064;72;1153;-66
2021/08/01 00:15:17;;;;;;;;;;;25.00;51.00;;;;;;1602464;72;812;-67
2021/08/01 00:17:18;;;;;;;;;;;24.90;50.90;;;;;;1613603;72;664;-67
2021/08/01 00:19:20;;;;;;;;;;;24.90;50.90;;;;;;1617840;72;775;-66
2021/08/01 00:21:22;;;;;;;;;;;24.90;50.80;;;;;;1610897;72;851;-67
2021/08/01 00:23:24;;;;;;;;;;;24.90;50.80;;;;;;1618479;72;1071;-66
2021/08/01 00:25:26;;;;;;;;;;;24.90;50.70;;;;;;1589092;72;738;-66
2021/08/01 00:27:33;;;;;;;;;;;24.90;50.60;;;;;;1604716;72;791;-66
2021/08/01 00:29:31;;;;;;;;;;;24.90;50.60;;;;;;1605107;72;1591;-66
2021/08/01 00:31:33;;;;;;;;;;;24.90;50.50;;;;;;1602340;72;1929;-66
2021/08/01 00:33:35;;;;;;;;;;;24.80;50.40;;;;;;1613452;72;1145;-66
2021/08/01 00:35:37;;;;;;;;;;;24.90;50.40;;;;;;1617318;72;734;-66
2021/08/01 00:37:39;;;;;;;;;;;24.80;50.30;;;;;;1613572;72;713;-66
2021/08/01 00:39:41;;;;;;;;;;;24.80;50.20;;;;;;1606032;72;694;-65
2021/08/01 00:41:43;;;;;;;;;;;24.80;50.20;;;;;;1609471;72;815;-65
2021/08/01 00:43:44;;;;;;;;;;;24.80;50.20;;;;;;1600098;72;1119;-65
2021/08/01 00:45:46;;;;;;;;;;;24.90;50.20;;;;;;1601125;72;802;-65
2021/08/01 00:47:48;;;;;;;;;;;24.80;50.00;;;;;;1608555;72;854;-65
2021/08/01 00:49:50;;;;;;;;;;;24.80;49.80;;;;;;1607706;72;785;-64
2021/08/01 00:51:52;;;;;;;;;;;24.90;49.80;;;;;;1614217;72;1940;-64
2021/08/01 00:53:54;;;;;;;;;;;24.80;49.70;;;;;;1603739;72;786;-64
2021/08/01 00:55:56;;;;;;;;;;;24.80;49.70;;;;;;1604785;72;825;-64
2021/08/01 00:57:57;;;;;;;;;;;24.80;49.50;;;;;;1604599;72;806;-65
2021/08/01 00:59:59;;;;;;;;;;;24.80;49.40;;;;;;1607410;72;674;-65
2021/08/01 01:02:03;;;;;;;;;;;24.80;49.40;;;;;;1602922;72;1150;-66
2021/08/01 01:04:12;;;;;;;;;;;24.70;49.20;;;;;;1598713;72;1991;-65
2021/08/01 01:06:16;;;;;;;;;;;24.70;49.00;;;;;;1608229;72;686;-65
2021/08/01 01:08:19;;;;;;;;;;;24.70;48.90;;;;;;1616219;72;844;-64
2021/08/01 01:10:26;;;;;;;;;;;24.70;48.90;;;;;;1615062;72;1996;-64
2021/08/01 01:12:32;;;;;;;;;;;24.70;48.70;;;;;;1607861;72;1930;-64
2021/08/01 01:14:35;;;;;;;;;;;24.70;48.70;;;;;;1611509;72;701;-64
2021/08/01 01:16:38;;;;;;;;;;;24.70;48.60;;;;;;1605366;72;951;-64
2021/08/01 01:18:42;;;;;;;;;;;24.70;48.50;;;;;;1607618;72;1968;-64
2021/08/01 01:21:03;;;;;;;;;;;24.70;48.50;;;;;;1606503;73;1053;-65
2021/08/01 01:23:13;;;;;;;;;;;24.70;48.50;;;;;;1585281;72;1206;-65
2021/08/01 01:25:16;;;;;;;;;;;24.60;48.40;;;;;;1610299;72;793;-64
2021/08/01 01:27:20;;;;;;;;;;;24.60;48.40;;;;;;1596597;72;1927;-64
2021/08/01 01:29:29;;;;;;;;;;;24.60;48.30;;;;;;1606804;72;1928;-69
2021/08/01 01:31:39;;;;;;;;;;;24.60;48.40;;;;;;1601163;72;1937;-69
2021/08/01 01:33:42;;;;;;;;;;;24.60;48.60;;;;;;1615432;72;1744;-69
2021/08/01 01:35:45;;;;;;;;;;;24.60;48.60;;;;;;1603606;72;765;-68
2021/08/01 01:37:48;;;;;;;;;;;24.60;48.60;;;;;;1614545;72;824;-67
2021/08/01 01:39:50;;;;;;;;;;;24.70;48.80;;;;;;1597205;72;799;-67
2021/08/01 01:41:52;;;;;;;;;;;24.70;48.80;;;;;;1605784;72;1125;-67
2021/08/01 01:43:53;;;;;;;;;;;24.70;48.90;;;;;;1607897;70;221147;-74
2021/08/01 01:45:55;;;;;;;;;;;24.60;48.90;;;;;;1611005;72;686;-74
2021/08/01 01:47:57;;;;;;;;;;;24.70;48.90;;;;;;1611089;72;760;-74
2021/08/01 01:49:59;;;;;;;;;;;24.70;48.90;;;;;;1614229;72;705;-73
2021/08/01 01:52:01;;;;;;;;;;;24.70;48.90;;;;;;1608907;72;1944;-73
2021/08/01 01:54:03;;;;;;;;;;;24.80;48.80;;;;;;1627879;71;1170;-74
2021/08/01 01:56:05;;;;;;;;;;;24.80;48.70;;;;;;1622971;71;737;-73
2021/08/01 01:58:08;;;;;;;;;;;24.70;48.60;;;;;;1637795;71;705;-73
2021/08/01 02:00:10;;;;;;;;;;;24.80;48.60;;;;;;1617451;71;780;-74
2021/08/01 02:02:14;;;;;;;;;;;24.70;48.70;;;;;;1635171;71;742;-73
2021/08/01 02:04:16;;;;;;;;;;;24.70;48.60;;;;;;1625675;71;1124;-72
2021/08/01 02:06:17;;;;;;;;;;;24.80;48.50;;;;;;1627465;71;757;-73
2021/08/01 02:08:19;;;;;;;;;;;24.80;48.40;;;;;;1620390;71;776;-71
2021/08/01 02:10:32;;;;;;;;;;;24.70;48.30;;;;;;1622912;71;879;-72
2021/08/01 02:12:35;;;;;;;;;;;24.80;48.20;;;;;;1618860;71;1928;-71
2021/08/01 02:14:39;;;;;;;;;;;24.80;48.30;;;;;;1628467;71;1137;-71
2021/08/01 02:16:41;;;;;;;;;;;24.70;48.10;;;;;;1608770;71;1056;-72
2021/08/01 02:18:52;;;;;;;;;;;24.70;48.20;;;;;;1615868;71;816;-71
2021/08/01 02:20:54;;;;;;;;;;;24.70;48.20;;;;;;1632168;71;697;-71
2021/08/01 02:22:56;;;;;;;;;;;24.70;48.20;;;;;;1633336;71;791;-70
2021/08/01 02:24:58;;;;;;;;;;;24.70;48.30;;;;;;1628636;71;1119;-71
2021/08/01 02:27:00;;;;;;;;;;;24.70;48.30;;;;;;1632873;71;718;-70
2021/08/01 02:29:02;;;;;;;;;;;24.80;48.30;;;;;;1622771;71;727;-70
2021/08/01 02:31:04;;;;;;;;;;;24.70;48.20;;;;;;1632700;71;1932;-71
2021/08/01 02:33:06;;;;;;;;;;;24.80;48.30;;;;;;1632213;71;768;-71
2021/08/01 02:35:08;;;;;;;;;;;24.80;48.10;;;;;;1626696;71;1096;-71
2021/08/01 02:37:10;;;;;;;;;;;24.80;48.20;;;;;;1632133;71;737;-70
2021/08/01 02:39:11;;;;;;;;;;;24.70;48.10;;;;;;1636800;71;671;-70
2021/08/01 02:41:21;;;;;;;;;;;24.70;48.20;;;;;;1625389;71;680;-71
2021/08/01 02:43:23;;;;;;;;;;;24.80;48.20;;;;;;1618326;71;1434;-76
2021/08/01 02:45:25;;;;;;;;;;;24.80;48.10;;;;;;1634186;71;725;-71
2021/08/01 02:47:27;;;;;;;;;;;24.80;48.30;;;;;;1630174;71;633;-71
2021/08/01 02:49:31;;;;;;;;;;;24.80;48.20;;;;;;1636751;71;781;-71
2021/08/01 02:51:33;;;;;;;;;;;24.80;48.30;;;;;;1631037;71;1939;-71
2021/08/01 02:53:36;;;;;;;;;;;24.80;48.40;;;;;;1632696;71;1097;-71
2021/08/01 02:55:38;;;;;;;;;;;24.80;48.20;;;;;;1640335;71;776;-71
2021/08/01 02:57:40;;;;;;;;;;;24.80;48.00;;;;;;1637619;71;550;-72
2021/08/01 02:59:42;;;;;;;;;;;24.80;48.00;;;;;;1622932;71;750;-72
2021/08/01 03:01:44;;;;;;;;;;;24.80;48.00;;;;;;1632978;71;790;-72
2021/08/01 03:03:46;;;;;;;;;;;24.80;48.00;;;;;;1624319;71;1157;-73
2021/08/01 03:05:48;;;;;;;;;;;24.80;47.60;;;;;;1634221;71;734;-73
2021/08/01 03:07:50;;;;;;;;;;;24.80;47.60;;;;;;1633931;71;671;-73
2021/08/01 03:09:54;;;;;;;;;;;24.80;47.60;;;;;;1624323;71;714;-73
2021/08/01 03:11:58;;;;;;;;;;;24.80;47.60;;;;;;1626499;71;1935;-72
2021/08/01 03:14:00;;;;;;;;;;;24.80;47.60;;;;;;1617839;71;1845;-73
2021/08/01 03:16:02;;;;;;;;;;;24.80;47.70;;;;;;1648207;71;772;-73
2021/08/01 03:18:04;;;;;;;;;;;24.80;47.60;;;;;;1622382;71;763;-73
2021/08/01 03:20:06;;;;;;;;;;;24.80;47.60;;;;;;1624591;71;678;-73
2021/08/01 03:22:08;;;;;;;;;;;24.80;47.30;;;;;;1635597;71;716;-73
2021/08/01 03:24:10;;;;;;;;;;;24.80;47.20;;;;;;1622165;71;1096;-73
2021/08/01 03:26:12;;;;;;;;;;;24.90;47.20;;;;;;1631686;71;722;-71
2021/08/01 03:28:14;;;;;;;;;;;24.80;47.00;;;;;;1637636;71;794;-70
2021/08/01 03:30:16;;;;;;;;;;;24.80;46.80;;;;;;1631226;71;796;-70
2021/08/01 03:32:18;;;;;;;;;;;24.80;46.80;;;;;;1640172;71;1945;-68
2021/08/01 03:34:20;;;;;;;;;;;24.90;46.80;;;;;;1623236;71;1119;-70
2021/08/01 03:36:22;;;;;;;;;;;24.80;46.70;;;;;;1633823;71;788;-71
2021/08/01 03:38:24;;;;;;;;;;;24.80;46.60;;;;;;1637813;71;726;-70
2021/08/01 03:40:26;;;;;;;;;;;24.80;46.50;;;;;;1643644;71;772;-70
2021/08/01 03:42:28;;;;;;;;;;;24.70;46.60;;;;;;1624223;71;727;-70
2021/08/01 03:44:29;;;;;;;;;;;24.70;46.50;;;;;;1630834;71;1145;-70
2021/08/01 03:46:31;;;;;;;;;;;24.80;46.70;;;;;;1610848;71;852;-70
2021/08/01 03:48:33;;;;;;;;;;;24.70;46.80;;;;;;1628370;71;796;-71
2021/08/01 03:50:35;;;;;;;;;;;24.70;46.90;;;;;;1619922;71;777;-71
2021/08/01 03:52:37;;;;;;;;;;;24.80;46.90;;;;;;1632683;71;1942;-70
2021/08/01 03:54:39;;;;;;;;;;;24.80;46.90;;;;;;1627957;71;1130;-70
2021/08/01 03:56:43;;;;;;;;;;;24.80;46.70;;;;;;1632562;71;808;-70
2021/08/01 03:58:45;;;;;;;;;;;24.80;46.70;;;;;;1619019;71;790;-70
2021/08/01 04:00:47;;;;;;;;;;;24.80;46.80;;;;;;1617785;71;921;-70
2021/08/01 04:02:49;;;;;;;;;;;24.80;46.80;;;;;;1617977;71;790;-71
2021/08/01 04:04:53;;;;;;;;;;;24.80;46.70;;;;;;1632026;71;1164;-72
2021/08/01 04:06:55;;;;;;;;;;;24.80;46.60;;;;;;1617789;71;822;-74
2021/08/01 04:08:56;;;;;;;;;;;24.70;46.60;;;;;;1646676;71;815;-73
2021/08/01 04:10:58;;;;;;;;;;;24.80;46.50;;;;;;1616891;71;727;-71
2021/08/01 04:13:00;;;;;;;;;;;24.80;46.60;;;;;;1633236;71;1949;-70
2021/08/01 04:15:02;;;;;;;;;;;24.70;46.40;;;;;;1630933;71;1199;-71
2021/08/01 04:17:04;;;;;;;;;;;24.80;46.40;;;;;;1626241;71;800;-71
2021/08/01 04:19:10;;;;;;;;;;;24.70;46.40;;;;;;1628591;71;1058;-72
2021/08/01 04:21:12;;;;;;;;;;;24.70;46.40;;;;;;1644773;71;821;-71
2021/08/01 04:23:14;;;;;;;;;;;24.70;46.50;;;;;;1624826;71;793;-71
2021/08/01 04:25:16;;;;;;;;;;;24.70;46.40;;;;;;1621566;71;1103;-71
2021/08/01 04:27:17;;;;;;;;;;;24.70;46.40;;;;;;1629996;71;763;-71
2021/08/01 04:29:19;;;;;;;;;;;24.70;46.40;;;;;;1626290;71;823;-72
2021/08/01 04:31:21;;;;;;;;;;;24.80;46.50;;;;;;1627533;71;787;-72
2021/08/01 04:33:23;;;;;;;;;;;24.80;46.40;;;;;;1616974;71;1942;-75
2021/08/01 04:35:25;;;;;;;;;;;24.70;46.30;;;;;;1632062;71;763;-73
2021/08/01 04:37:27;;;;;;;;;;;24.80;46.30;;;;;;1646277;71;755;-75
2021/08/01 04:39:29;;;;;;;;;;;24.80;46.20;;;;;;1617609;71;716;-72
2021/08/01 04:41:31;;;;;;;;;;;24.80;45.90;;;;;;1633783;71;654;-71
2021/08/01 04:43:33;;;;;;;;;;;24.80;45.90;;;;;;1631160;71;1121;-72
2021/08/01 04:45:35;;;;;;;;;;;24.70;46.00;;;;;;1621546;71;789;-72
2021/08/01 04:47:36;;;;;;;;;;;24.70;45.80;;;;;;1610575;71;678;-72
2021/08/01 04:49:38;;;;;;;;;;;24.70;45.60;;;;;;1627674;71;794;-74
2021/08/01 04:51:40;;;;;;;;;;;24.80;45.60;;;;;;1637352;71;693;-72
2021/08/01 04:53:42;;;;;;;;;;;24.80;45.50;;;;;;1628844;71;1939;-70
2021/08/01 04:55:44;;;;;;;;;;;24.70;45.60;;;;;;1634583;71;652;-71
2021/08/01 04:57:46;;;;;;;;;;;24.70;45.80;;;;;;1633818;71;672;-76
2021/08/01 04:59:48;;;;;;;;;;;24.60;45.60;;;;;;1630418;71;746;-73
2021/08/01 05:01:50;;;;;;;;;;;24.70;45.70;;;;;;1628570;71;815;-73
2021/08/01 05:03:51;;;;;;;;;;;24.80;45.70;;;;;;1630203;71;1206;-72
2021/08/01 05:05:54;;;;;;;;;;;24.70;45.70;;;;;;1630599;71;750;-74
2021/08/01 05:07:55;;;;;;;;;;;24.70;45.70;;;;;;1633900;71;585;-72
2021/08/01 05:09:57;;;;;;;;;;;24.70;45.70;;;;;;1642152;71;795;-70
2021/08/01 05:11:59;;;;;;;;;;;24.70;45.90;;;;;;1631796;71;741;-71
2021/08/01 05:14:01;;;;;;;;;;;24.70;46.00;;;;;;1633065;71;1939;-72
2021/08/01 05:16:03;;;;;;;;;;;24.70;46.00;;;;;;1624137;71;776;-73
2021/08/01 05:18:05;;;;;;;;;;;24.70;46.00;;;;;;1630616;71;754;-72
2021/08/01 05:20:07;;;;;;;;;;;24.70;45.90;;;;;;1636214;71;780;-71
2021/08/01 05:22:09;;;;;;;;;;;24.70;46.00;;;;;;1632194;71;924;-75
2021/08/01 05:24:11;;;;;;;;;;;24.70;46.10;;;;;;1621976;71;1107;-72
2021/08/01 05:26:13;;;;;;;;;;;24.70;46.30;;;;;;1627293;71;733;-71
2021/08/01 05:28:15;;;;;;;;;;;24.70;46.20;;;;;;1626081;71;786;-76
2021/08/01 05:30:17;;;;;;;;;;;24.70;46.20;;;;;;1631257;71;805;-71
2021/08/01 05:32:19;;;;;;;;;;;24.70;46.20;;;;;;1619990;71;1936;-71
2021/08/01 05:34:20;;;;;;;;;;;24.70;46.30;;;;;;1635494;71;1132;-69
2021/08/01 05:36:22;;;;;;;;;;;24.70;46.30;;;;;;1625180;71;756;-68
2021/08/01 05:38:24;;;;;;;;;;;24.70;46.30;;;;;;1640056;71;810;-71
2021/08/01 05:40:26;;;;;;;;;;;24.70;45.60;;;;;;1650803;71;801;-68
2021/08/01 05:42:28;;;;;;;;;;;24.80;45.40;;;;;;1634204;71;761;-69
2021/08/01 05:44:30;;;;;;;;;;;24.70;45.30;;;;;;1627209;71;1119;-68
2021/08/01 05:46:32;;;;;;;;;;;24.70;45.30;;;;;;1634397;71;1091;-68
2021/08/01 05:48:33;;;;;;;;;;;24.70;45.30;;;;;;1633790;71;744;-68
2021/08/01 05:50:35;;;;;;;;;;;24.60;45.20;;;;;;1634904;71;899;-71
2021/08/01 05:52:37;;;;;;;;;;;24.70;45.40;;;;;;1622305;72;1943;-69
2021/08/01 05:54:39;;;;;;;;;;;24.70;45.40;;;;;;1624481;71;1147;-70
2021/08/01 05:56:41;;;;;;;;;;;24.60;45.30;;;;;;1623626;71;807;-67
2021/08/01 05:58:43;;;;;;;;;;;24.60;45.30;;;;;;1633004;72;785;-67
2021/08/01 06:00:45;;;;;;;;;;;24.50;45.50;;;;;;1623889;71;779;-65
2021/08/01 06:02:47;;;;;;;;;;;24.50;45.50;;;;;;1627343;72;903;-67
2021/08/01 06:04:51;;;;;;;;;;;24.60;45.50;;;;;;1623888;71;1138;-67
2021/08/01 06:06:53;;;;;;;;;;;24.60;45.60;;;;;;1634737;71;806;-67
2021/08/01 06:08:56;;;;;;;;;;;24.60;45.60;;;;;;1625438;72;776;-68
2021/08/01 06:10:58;;;;;;;;;;;24.50;45.60;;;;;;1626025;71;2024;-67
2021/08/01 06:13:00;;;;;;;;;;;24.50;45.60;;;;;;1625738;71;1939;-67
2021/08/01 06:15:02;;;;;;;;;;;24.50;45.60;;;;;;1631125;71;1142;-66
2021/08/01 06:17:04;;;;;;;;;;;24.50;45.50;;;;;;1635033;71;796;-68
2021/08/01 06:19:06;;;;;;;;;;;24.50;45.60;;;;;;1622475;71;792;-68
2021/08/01 06:21:08;;;;;;;;;;;24.50;45.60;;;;;;1629503;71;816;-67
2021/08/01 06:23:10;;;;;;;;;;;24.50;45.70;;;;;;1647950;71;675;-67
2021/08/01 06:25:12;;;;;;;;;;;24.50;45.60;;;;;;1625589;71;1091;-68
2021/08/01 06:27:14;;;;;;;;;;;24.50;45.60;;;;;;1630866;71;765;-68
2021/08/01 06:29:16;;;;;;;;;;;24.50;45.70;;;;;;1619135;71;771;-68
2021/08/01 06:31:18;;;;;;;;;;;24.40;45.60;;;;;;1624010;71;787;-69
2021/08/01 06:33:20;;;;;;;;;;;24.50;45.70;;;;;;1638337;71;1944;-68
2021/08/01 06:35:22;;;;;;;;;;;24.40;45.60;;;;;;1631789;71;871;-69
2021/08/01 06:37:24;;;;;;;;;;;24.40;45.60;;;;;;1640093;71;799;-71
2021/08/01 06:39:26;;;;;;;;;;;24.40;45.60;;;;;;1638619;71;826;-69
2021/08/01 06:41:27;;;;;;;;;;;24.40;45.70;;;;;;1624528;71;786;-69
2021/08/01 06:43:29;;;;;;;;;;;24.40;45.70;;;;;;1617277;71;1145;-69
2021/08/01 06:45:31;;;;;;;;;;;24.40;45.80;;;;;;1634769;71;735;-71
2021/08/01 06:47:33;;;;;;;;;;;24.40;45.80;;;;;;1642425;71;710;-72
2021/08/01 06:49:35;;;;;;;;;;;24.40;46.10;;;;;;1630968;71;653;-73
2021/08/01 06:51:37;;;;;;;;;;;24.50;46.30;;;;;;1633983;71;728;-70
2021/08/01 06:53:39;;;;;;;;;;;24.50;46.50;;;;;;1621483;72;1937;-72
2021/08/01 06:55:41;;;;;;;;;;;24.60;46.60;;;;;;1626971;71;779;-73
2021/08/01 06:57:43;;;;;;;;;;;24.60;46.60;;;;;;1629245;71;714;-70
2021/08/01 06:59:44;;;;;;;;;;;24.60;46.20;;;;;;1638894;71;773;-71
2021/08/01 07:01:46;;;;;;;;;;;24.70;46.10;;;;;;1632387;71;789;-69
2021/08/01 07:03:48;;;;;;;;;;;24.70;46.00;;;;;;1630079;71;1173;-71
2021/08/01 07:05:50;;;;;;;;;;;24.60;46.00;;;;;;1622249;71;762;-70
2021/08/01 07:07:52;;;;;;;;;;;24.60;46.00;;;;;;1630266;71;645;-70
2021/08/01 07:09:54;;;;;;;;;;;24.60;46.10;;;;;;1616517;71;840;-72
2021/08/01 07:11:56;;;;;;;;;;;24.60;46.20;;;;;;1624127;71;758;-70
2021/08/01 07:13:58;;;;;;;;;;;24.60;46.20;;;;;;1628137;71;1922;-70
2021/08/01 07:16:03;;;;;;;;;;;24.50;46.20;;;;;;1625648;71;739;-69
2021/08/01 07:18:05;;;;;;;;;;;24.60;46.30;;;;;;1616438;71;813;-70
2021/08/01 07:20:11;;;;;;;;;;;24.60;46.20;;;;;;1627063;71;703;-70
2021/08/01 07:22:13;;;;;;;;;;;24.50;46.30;;;;;;1626234;71;807;-70
2021/08/01 07:24:14;;;;;;;;;;;24.50;46.40;;;;;;1632606;71;1130;-70
2021/08/01 07:26:18;;;;;;;;;;;24.50;46.30;;;;;;1616293;71;800;-70
2021/08/01 07:28:20;;;;;;;;;;;24.50;46.40;;;;;;1627263;71;1464;-71
2021/08/01 07:30:22;;;;;;;;;;;24.50;46.40;;;;;;1624635;71;735;-70
2021/08/01 07:32:24;;;;;;;;;;;24.40;46.30;;;;;;1618966;71;865;-70
2021/08/01 07:34:25;;;;;;;;;;;24.40;46.40;;;;;;1624665;71;1944;-70
2021/08/01 07:36:28;;;;;;;;;;;24.40;46.50;;;;;;1623043;71;731;-71
2021/08/01 07:38:30;;;;;;;;;;;24.50;46.50;;;;;;1621314;71;799;-71
2021/08/01 07:40:31;;;;;;;;;;;24.40;46.50;;;;;;1616435;72;770;-70
2021/08/01 07:42:33;;;;;;;;;;;24.40;46.50;;;;;;1609968;71;759;-70
2021/08/01 07:44:45;;;;;;;;;;;24.40;46.50;;;;;;1597563;70;222073;-69
2021/08/01 07:46:39;;;;;;;;;;;24.40;46.60;;;;;;1585366;72;1145;-69
2021/08/01 07:48:41;;;;;;;;;;;24.40;46.70;;;;;;1583597;73;711;-69
2021/08/01 07:50:43;;;;;;;;;;;24.30;46.70;;;;;;1578897;72;708;-70
2021/08/01 07:52:45;;;;;;;;;;;24.40;46.70;;;;;;1580616;73;797;-70
2021/08/01 07:54:47;;;;;;;;;;;24.40;46.80;;;;;;1578470;72;1939;-70
2021/08/01 07:56:49;;;;;;;;;;;24.40;46.80;;;;;;1586057;73;707;-72
2021/08/01 07:58:51;;;;;;;;;;;24.40;46.90;;;;;;1581769;72;784;-70
2021/08/01 08:00:52;;;;;;;;;;;24.30;47.00;;;;;;1589812;73;759;-69
2021/08/01 08:02:54;;;;;;;;;;;24.40;46.90;;;;;;1584611;73;763;-70
2021/08/01 08:04:56;;;;;;;;;;;24.40;47.10;;;;;;1587544;73;1157;-69
2021/08/01 08:06:58;;;;;;;;;;;24.40;47.10;;;;;;1587561;72;795;-70
2021/08/01 08:09:02;;;;;;;;;;;24.40;47.10;;;;;;1592691;72;763;-70
2021/08/01 08:11:03;;;;;;;;;;;24.40;47.10;;;;;;1580782;72;1589;-71
2021/08/01 08:13:05;;;;;;;;;;;24.40;47.20;;;;;;1600601;72;719;-70
2021/08/01 08:15:08;;;;;;;;;;;24.40;47.20;;;;;;1595270;72;1938;-70
2021/08/01 08:17:10;;;;;;;;;;;24.40;47.20;;;;;;1591109;72;724;-71
2021/08/01 08:19:12;;;;;;;;;;;24.40;47.20;;;;;;1593787;73;790;-71
2021/08/01 08:21:14;;;;;;;;;;;24.40;47.30;;;;;;1584704;72;746;-70
2021/08/01 08:23:16;;;;;;;;;;;24.30;47.30;;;;;;1585769;73;754;-68
2021/08/01 08:25:18;;;;;;;;;;;24.30;47.30;;;;;;1586522;72;1152;-70
2021/08/01 08:27:19;;;;;;;;;;;24.30;47.30;;;;;;1593157;72;690;-71
2021/08/01 08:29:24;;;;;;;;;;;24.40;47.40;;;;;;1589890;72;680;-70
2021/08/01 08:31:26;;;;;;;;;;;24.30;47.40;;;;;;1591654;72;693;-70
2021/08/01 08:33:28;;;;;;;;;;;24.40;47.30;;;;;;1595392;72;1927;-70
2021/08/01 08:35:30;;;;;;;;;;;24.30;47.40;;;;;;1623255;71;1152;-70
2021/08/01 08:37:32;;;;;;;;;;;24.40;47.40;;;;;;1598316;72;790;-69
2021/08/01 08:39:34;;;;;;;;;;;24.40;47.40;;;;;;1606079;72;760;-70
2021/08/01 08:41:36;;;;;;;;;;;24.30;47.40;;;;;;1607652;72;548;-70
2021/08/01 08:43:38;;;;;;;;;;;24.30;47.40;;;;;;1584787;74;714;-70
2021/08/01 08:45:41;;;;;;;;;;;24.30;47.40;;;;;;1586802;72;1159;-70
2021/08/01 08:47:44;;;;;;;;;;;24.30;47.50;;;;;;1583258;73;1190;-70
2021/08/01 08:49:50;;;;;;;;;;;24.30;47.60;;;;;;1585163;72;730;-70
2021/08/01 08:51:53;;;;;;;;;;;24.30;47.50;;;;;;1585368;73;717;-71
2021/08/01 08:53:55;;;;;;;;;;;24.30;47.50;;;;;;1587177;73;1900;-70
2021/08/01 08:55:56;;;;;;;;;;;24.30;47.50;;;;;;1593634;72;772;-71
2021/08/01 08:58:03;;;;;;;;;;;24.30;47.60;;;;;;1588865;72;778;-71
2021/08/01 09:00:04;;;;;;;;;;;24.20;47.40;;;;;;1595379;73;1227;-70
2021/08/01 09:02:05;;;;;;;;;;;24.30;47.60;;;;;;1590702;73;998;-70
2021/08/01 09:04:07;;;;;;;;;;;24.40;47.60;;;;;;1588295;72;1112;-71
2021/08/01 09:06:09;;;;;;;;;;;24.30;47.60;;;;;;1594390;72;711;-70
2021/08/01 09:08:11;;;;;;;;;;;24.40;47.70;;;;;;1599148;72;807;-71
2021/08/01 09:10:15;;;;;;;;;;;24.30;47.70;;;;;;1587189;72;1096;-73
2021/08/01 09:12:17;;;;;;;;;;;24.30;47.70;;;;;;1583730;72;713;-72
2021/08/01 09:14:20;;;;;;;;;;;24.40;47.60;;;;;;1585256;72;1961;-72
2021/08/01 09:16:22;;;;;;;;;;;24.40;47.60;;;;;;1595678;72;1177;-73
2021/08/01 09:18:24;;;;;;;;;;;24.30;47.70;;;;;;1583446;72;697;-71
2021/08/01 09:20:27;;;;;;;;;;;24.40;47.70;;;;;;1565462;73;1184;-71
2021/08/01 09:22:29;;;;;;;;;;;24.30;47.70;;;;;;1582971;72;714;-72
2021/08/01 09:24:33;;;;;;;;;;;24.30;47.70;;;;;;1595846;72;1128;-70
2021/08/01 09:26:43;;;;;;;;;;;24.30;47.80;;;;;;1590543;73;796;-70
2021/08/01 09:28:46;;;;;;;;;;;24.40;47.80;;;;;;1576713;72;1011;-72
2021/08/01 09:30:49;;;;;;;;;;;24.30;47.80;;;;;;1578850;72;1078;-72
2021/08/01 09:32:51;;;;;;;;;;;24.30;47.80;;;;;;1580452;72;772;-70
2021/08/01 09:34:53;;;;;;;;;;;24.40;47.80;;;;;;1597930;72;1941;-71
2021/08/01 09:36:56;;;;;;;;;;;24.40;47.80;;;;;;1590400;73;722;-69
2021/08/01 09:38:59;;;;;;;;;;;24.40;47.90;;;;;;1583402;73;1470;-71
2021/08/01 09:41:04;;;;;;;;;;;24.40;47.90;;;;;;1586246;72;669;-71
2021/08/01 09:43:07;;;;;;;;;;;24.40;47.90;;;;;;1587261;72;711;-69
2021/08/01 09:45:14;;;;;;;;;;;24.40;48.00;;;;;;1585879;73;1147;-73
2021/08/01 09:47:25;;;;;;;;;;;24.40;48.00;;;;;;1584664;73;1592;-67
2021/08/01 09:49:28;;;;;;;;;;;24.40;48.00;;;;;;1593719;72;672;-70
2021/08/01 09:51:30;;;;;;;;;;;24.40;48.00;;;;;;1591341;72;700;-67
2021/08/01 09:53:32;;;;;;;;;;;24.40;48.00;;;;;;1565495;73;1188;-70
2021/08/01 09:55:34;;;;;;;;;;;24.50;48.10;;;;;;1598074;72;1939;-69
2021/08/01 09:57:36;;;;;;;;;;;24.50;48.10;;;;;;1587340;72;706;-71
2021/08/01 09:59:38;;;;;;;;;;;24.50;48.20;;;;;;1594387;73;728;-71
2021/08/01 10:01:50;;;;;;;;;;;24.40;48.10;;;;;;1595918;72;752;-69
2021/08/01 10:03:51;;;;;;;;;;;24.50;48.10;;;;;;1585380;72;1115;-69
2021/08/01 10:05:55;;;;;;;;;;;24.50;48.20;;;;;;1586469;72;1087;-69
2021/08/01 10:07:57;;;;;;;;;;;24.50;48.20;;;;;;1593356;73;1090;-70
2021/08/01 10:09:59;;;;;;;;;;;24.50;48.20;;;;;;1597457;72;678;-72
2021/08/01 10:12:01;;;;;;;;;;;24.50;48.20;;;;;;1610176;72;729;-69
2021/08/01 10:14:03;;;;;;;;;;;24.50;48.30;;;;;;1607856;72;1936;-69
2021/08/01 10:16:05;;;;;;;;;;;24.50;48.30;;;;;;1596471;72;700;-70
2021/08/01 10:18:06;;;;;;;;;;;24.50;48.30;;;;;;1603197;73;750;-69
2021/08/01 10:20:09;;;;;;;;;;;24.50;48.30;;;;;;1600361;73;712;-70
2021/08/01 10:22:11;;;;;;;;;;;24.50;48.30;;;;;;1600039;73;722;-71
2021/08/01 10:24:14;;;;;;;;;;;24.50;48.30;;;;;;1600664;71;1168;-70
2021/08/01 10:26:16;;;;;;;;;;;24.50;48.30;;;;;;1583643;72;750;-71
2021/08/01 10:28:20;;;;;;;;;;;24.60;48.40;;;;;;1595651;72;721;-73
2021/08/01 10:30:21;;;;;;;;;;;24.50;48.40;;;;;;1590901;72;1024;-69
2021/08/01 10:32:25;;;;;;;;;;;24.60;48.50;;;;;;1589004;72;808;-71
2021/08/01 10:34:46;;;;;;;;;;;24.60;48.60;;;;;;1592151;72;1948;-70
2021/08/01 10:36:48;;;;;;;;;;;24.50;48.60;;;;;;1593685;72;727;-69
2021/08/01 10:38:50;;;;;;;;;;;24.50;48.50;;;;;;1594848;73;766;-69
2021/08/01 10:40:56;;;;;;;;;;;24.60;48.60;;;;;;1589179;73;783;-67
2021/08/01 10:42:59;;;;;;;;;;;24.60;48.50;;;;;;1584355;72;761;-68
2021/08/01 10:45:01;;;;;;;;;;;24.60;48.20;;;;;;1599186;72;1103;-68
2021/08/01 10:47:07;;;;;;;;;;;24.70;48.20;;;;;;1601367;73;781;-67
2021/08/01 10:49:09;;;;;;;;;;;24.60;48.10;;;;;;1603740;72;697;-68
2021/08/01 10:51:11;;;;;;;;;;;24.60;48.10;;;;;;1603508;73;710;-71
2021/08/01 10:53:21;;;;;;;;;;;24.60;48.20;;;;;;1600597;72;770;-69
2021/08/01 10:55:23;;;;;;;;;;;24.60;48.30;;;;;;1601114;72;1930;-69
2021/08/01 10:57:25;;;;;;;;;;;24.50;48.20;;;;;;1605141;73;645;-68
2021/08/01 10:59:47;;;;;;;;;;;24.60;48.20;;;;;;1604473;72;653;-69
2021/08/01 11:02:07;;;;;;;;;;;24.60;48.20;;;;;;1602987;72;715;-64
2021/08/01 11:04:28;;;;;;;;;;;24.60;48.20;;;;;;1600918;73;1146;-69
2021/08/01 11:06:38;;;;;;;;;;;24.50;48.30;;;;;;1605987;73;771;-71
2021/08/01 11:08:41;;;;;;;;;;;24.50;48.40;;;;;;1603816;72;745;-66
2021/08/01 11:10:43;;;;;;;;;;;24.50;48.50;;;;;;1581686;73;1582;-68
2021/08/01 11:12:45;;;;;;;;;;;24.50;48.70;;;;;;1601189;72;901;-73
2021/08/01 11:14:47;;;;;;;;;;;24.60;48.70;;;;;;1593536;72;1949;-68
2021/08/01 11:16:49;;;;;;;;;;;24.70;48.60;;;;;;1586138;72;721;-70
2021/08/01 11:18:51;;;;;;;;;;;24.60;48.30;;;;;;1568728;73;755;-69
2021/08/01 11:20:53;;;;;;;;;;;24.70;48.40;;;;;;1553128;74;708;-69
2021/08/01 11:22:55;;;;;;;;;;;24.60;48.30;;;;;;1541368;75;774;-68
2021/08/01 11:25:15;;;;;;;;;;;24.70;48.40;;;;;;1544153;75;1128;-68
2021/08/01 11:27:17;;;;;;;;;;;24.60;48.30;;;;;;1537804;75;732;-68
2021/08/01 11:29:19;;;;;;;;;;;24.60;48.20;;;;;;1551993;74;675;-70
2021/08/01 11:31:24;;;;;;;;;;;24.60;48.20;;;;;;1560792;75;787;-69
2021/08/01 11:33:32;;;;;;;;;;;24.50;48.10;;;;;;1565480;74;780;-69
2021/08/01 11:35:34;;;;;;;;;;;24.50;48.10;;;;;;1578392;74;1938;-69
2021/08/01 11:37:35;;;;;;;;;;;24.50;47.90;;;;;;1569532;74;732;-69
2021/08/01 11:39:50;;;;;;;;;;;24.50;47.90;;;;;;1574012;75;700;-69
2021/08/01 11:41:52;;;;;;;;;;;24.60;47.90;;;;;;1583133;74;703;-68
2021/08/01 11:43:58;;;;;;;;;;;24.50;47.80;;;;;;1580919;74;1146;-68
2021/08/01 11:46:01;;;;;;;;;;;24.50;47.80;;;;;;1570650;74;747;-68
2021/08/01 11:48:04;;;;;;;;;;;24.50;47.80;;;;;;1566693;74;779;-71
2021/08/01 11:50:06;;;;;;;;;;;24.50;47.80;;;;;;1583356;74;771;-71
2021/08/01 11:52:08;;;;;;;;;;;24.50;47.80;;;;;;1573485;74;756;-70
2021/08/01 11:54:11;;;;;;;;;;;24.50;47.80;;;;;;1569769;74;1077;-70
2021/08/01 11:56:13;;;;;;;;;;;24.40;47.70;;;;;;1569606;74;1934;-71
2021/08/01 11:58:15;;;;;;;;;;;24.50;47.80;;;;;;1552923;74;751;-71
2021/08/01 12:00:17;;;;;;;;;;;24.50;47.80;;;;;;1580155;74;715;-70
2021/08/01 12:02:19;;;;;;;;;;;24.40;47.60;;;;;;1572804;74;664;-70
2021/08/01 12:04:20;;;;;;;;;;;24.50;47.60;;;;;;1559144;74;1163;-71
2021/08/01 12:06:24;;;;;;;;;;;24.40;47.60;;;;;;1558548;74;695;-70
2021/08/01 12:08:32;;;;;;;;;;;24.40;47.60;;;;;;1557829;74;1709;-69
2021/08/01 12:10:34;;;;;;;;;;;24.40;47.60;;;;;;1566831;74;718;-70
2021/08/01 12:12:36;;;;;;;;;;;24.40;47.60;;;;;;1567028;74;699;-70